sensor_id;sensor_type;location;lat;lon;timestamp;P1;durP1;ratioP1;P2;durP2;ratioP2
41799;SDS011;27468;47.460;19.034;2022-12-13T00:02:15;14.30;;;8.03;;
41799;SDS011;27468;47.460;19.034;2022-12-13T00:04:41;16.93;;;8.63;;
41799;SDS011;27468;47.460;19.034;2022-12-13T00:07:06;19.13;;;9.70;;
41799;SDS011;27468;47.460;19.034;2022-12-13T00:09:32;17.07;;;9.13;;
41799;SDS011;27468;47.460;19.034;2022-12-13T00:11:57;19.53;;;8.67;;
41799;SDS011;27468;47.460;19.034;2022-12-13T00:14:22;16.13;;;7.83;;
41799;SDS011;27468;47.460;19.034;2022-12-13T00:16:48;15.80;;;8.73;;
41799;SDS011;27468;47.460;19.034;2022-12-13T00:19:14;17.53;;;8.53;;
41799;SDS011;27468;47.460;19.034;2022-12-13T00:21:40;16.37;;;8.63;;
41799;SDS011;27468;47.460;19.034;2022-12-13T00:24:06;14.47;;;7.73;;
41799;SDS011;27468;47.460;19.034;2022-12-13T00:26:32;14.07;;;6.63;;
41799;SDS011;27468;47.460;19.034;2022-12-13T00:29:01;12.03;;;6.90;;
41799;SDS011;27468;47.460;19.034;2022-12-13T00:31:30;11.73;;;5.32;;
41799;SDS011;27468;47.460;19.034;2022-12-13T00:33:58;10.90;;;5.40;;
41799;SDS011;27468;47.460;19.034;2022-12-13T00:36:24;8.80;;;4.77;;
41799;SDS011;27468;47.460;19.034;2022-12-13T00:38:50;13.73;;;6.90;;
41799;SDS011;27468;47.460;19.034;2022-12-13T00:41:24;10.43;;;5.60;;
41799;SDS011;27468;47.460;19.034;2022-12-13T00:43:51;12.20;;;7.40;;
41799;SDS011;27468;47.460;19.034;2022-12-13T00:46:18;12.97;;;6.53;;
41799;SDS011;27468;47.460;19.034;2022-12-13T00:48:50;12.87;;;6.70;;
41799;SDS011;27468;47.460;19.034;2022-12-13T00:51:17;12.70;;;6.83;;
41799;SDS011;27468;47.460;19.034;2022-12-13T00:53:44;11.33;;;5.93;;
41799;SDS011;27468;47.460;19.034;2022-12-13T00:56:10;13.20;;;6.60;;
41799;SDS011;27468;47.460;19.034;2022-12-13T00:58:37;13.03;;;7.03;;
41799;SDS011;27468;47.460;19.034;2022-12-13T01:01:03;12.10;;;6.10;;
41799;SDS011;27468;47.460;19.034;2022-12-13T01:03:30;13.03;;;7.10;;
41799;SDS011;27468;47.460;19.034;2022-12-13T01:05:55;16.03;;;7.53;;
41799;SDS011;27468;47.460;19.034;2022-12-13T01:08:21;14.50;;;7.37;;
41799;SDS011;27468;47.460;19.034;2022-12-13T01:10:46;14.13;;;7.93;;
41799;SDS011;27468;47.460;19.034;2022-12-13T01:13:12;15.47;;;8.33;;
41799;SDS011;27468;47.460;19.034;2022-12-13T01:15:39;20.57;;;9.80;;
41799;SDS011;27468;47.460;19.034;2022-12-13T01:18:06;16.23;;;8.23;;
41799;SDS011;27468;47.460;19.034;2022-12-13T01:20:31;14.80;;;7.37;;
41799;SDS011;27468;47.460;19.034;2022-12-13T01:22:57;15.63;;;7.50;;
41799;SDS011;27468;47.460;19.034;2022-12-13T01:25:22;16.10;;;8.17;;
41799;SDS011;27468;47.460;19.034;2022-12-13T01:27:47;16.33;;;8.90;;
41799;SDS011;27468;47.460;19.034;2022-12-13T01:30:13;19.10;;;10.57;;
41799;SDS011;27468;47.460;19.034;2022-12-13T01:32:38;18.27;;;9.37;;
41799;SDS011;27468;47.460;19.034;2022-12-13T01:35:04;19.63;;;9.67;;
41799;SDS011;27468;47.460;19.034;2022-12-13T01:37:29;21.63;;;9.83;;
41799;SDS011;27468;47.460;19.034;2022-12-13T01:39:55;19.07;;;10.03;;
41799;SDS011;27468;47.460;19.034;2022-12-13T01:42:20;22.30;;;10.67;;
41799;SDS011;27468;47.460;19.034;2022-12-13T01:45:05;19.87;;;10.87;;
41799;SDS011;27468;47.460;19.034;2022-12-13T01:47:36;22.10;;;10.83;;
41799;SDS011;27468;47.460;19.034;2022-12-13T01:50:11;19.80;;;10.17;;
41799;SDS011;27468;47.460;19.034;2022-12-13T01:52:41;15.90;;;7.20;;
41799;SDS011;27468;47.460;19.034;2022-12-13T01:55:08;22.73;;;9.40;;
41799;SDS011;27468;47.460;19.034;2022-12-13T01:57:36;16.90;;;8.40;;
41799;SDS011;27468;47.460;19.034;2022-12-13T02:00:09;17.93;;;9.43;;
41799;SDS011;27468;47.460;19.034;2022-12-13T02:02:35;19.57;;;8.53;;
41799;SDS011;27468;47.460;19.034;2022-12-13T02:05:04;20.80;;;9.63;;
41799;SDS011;27468;47.460;19.034;2022-12-13T02:07:35;19.70;;;8.00;;
41799;SDS011;27468;47.460;19.034;2022-12-13T02:10:03;18.63;;;8.30;;
41799;SDS011;27468;47.460;19.034;2022-12-13T02:12:31;18.70;;;8.33;;
41799;SDS011;27468;47.460;19.034;2022-12-13T02:14:58;15.40;;;7.07;;
41799;SDS011;27468;47.460;19.034;2022-12-13T02:17:29;15.70;;;8.00;;
41799;SDS011;27468;47.460;19.034;2022-12-13T02:31:17;19.10;;;9.87;;
41799;SDS011;27468;47.460;19.034;2022-12-13T02:34:00;21.00;;;9.33;;
41799;SDS011;27468;47.460;19.034;2022-12-13T02:39:20;16.93;;;8.90;;
41799;SDS011;27468;47.460;19.034;2022-12-13T02:41:52;21.47;;;8.17;;
41799;SDS011;27468;47.460;19.034;2022-12-13T02:44:32;20.33;;;9.87;;
41799;SDS011;27468;47.460;19.034;2022-12-13T02:47:14;18.37;;;8.73;;
41799;SDS011;27468;47.460;19.034;2022-12-13T02:49:45;18.97;;;8.60;;
41799;SDS011;27468;47.460;19.034;2022-12-13T02:52:14;18.73;;;8.40;;
41799;SDS011;27468;47.460;19.034;2022-12-13T02:54:41;20.80;;;10.00;;
41799;SDS011;27468;47.460;19.034;2022-12-13T03:00:21;22.23;;;9.93;;
41799;SDS011;27468;47.460;19.034;2022-12-13T03:11:19;20.30;;;9.20;;
41799;SDS011;27468;47.460;19.034;2022-12-13T03:13:53;20.67;;;9.43;;
41799;SDS011;27468;47.460;19.034;2022-12-13T03:18:59;22.53;;;10.90;;
41799;SDS011;27468;47.460;19.034;2022-12-13T03:21:26;20.27;;;10.77;;
41799;SDS011;27468;47.460;19.034;2022-12-13T03:23:52;22.53;;;10.60;;
41799;SDS011;27468;47.460;19.034;2022-12-13T03:26:21;21.33;;;9.87;;
41799;SDS011;27468;47.460;19.034;2022-12-13T03:31:16;22.23;;;9.70;;
41799;SDS011;27468;47.460;19.034;2022-12-13T03:33:41;19.93;;;9.37;;
41799;SDS011;27468;47.460;19.034;2022-12-13T03:36:07;24.80;;;10.33;;
41799;SDS011;27468;47.460;19.034;2022-12-13T03:38:34;25.37;;;10.33;;
41799;SDS011;27468;47.460;19.034;2022-12-13T03:41:04;24.60;;;10.03;;
41799;SDS011;27468;47.460;19.034;2022-12-13T03:43:33;24.07;;;10.37;;
41799;SDS011;27468;47.460;19.034;2022-12-13T03:45:59;24.20;;;10.87;;
41799;SDS011;27468;47.460;19.034;2022-12-13T03:48:25;21.07;;;9.57;;
41799;SDS011;27468;47.460;19.034;2022-12-13T03:50:51;22.90;;;10.53;;
41799;SDS011;27468;47.460;19.034;2022-12-13T03:53:17;24.47;;;10.57;;
41799;SDS011;27468;47.460;19.034;2022-12-13T03:55:43;19.23;;;9.23;;
41799;SDS011;27468;47.460;19.034;2022-12-13T03:58:08;24.80;;;10.20;;
41799;SDS011;27468;47.460;19.034;2022-12-13T04:00:33;22.17;;;10.07;;
41799;SDS011;27468;47.460;19.034;2022-12-13T04:02:59;22.10;;;10.37;;
41799;SDS011;27468;47.460;19.034;2022-12-13T04:05:24;26.77;;;10.77;;
41799;SDS011;27468;47.460;19.034;2022-12-13T04:07:50;23.23;;;9.60;;
41799;SDS011;27468;47.460;19.034;2022-12-13T04:10:15;24.40;;;10.57;;
41799;SDS011;27468;47.460;19.034;2022-12-13T04:12:41;27.10;;;10.43;;
41799;SDS011;27468;47.460;19.034;2022-12-13T04:15:24;24.47;;;10.23;;
41799;SDS011;27468;47.460;19.034;2022-12-13T04:17:50;24.47;;;9.90;;
41799;SDS011;27468;47.460;19.034;2022-12-13T04:20:15;25.27;;;10.87;;
41799;SDS011;27468;47.460;19.034;2022-12-13T04:22:41;27.63;;;11.10;;
41799;SDS011;27468;47.460;19.034;2022-12-13T04:25:06;29.37;;;12.00;;
41799;SDS011;27468;47.460;19.034;2022-12-13T04:27:32;27.27;;;12.00;;
41799;SDS011;27468;47.460;19.034;2022-12-13T04:29:57;28.20;;;11.03;;
41799;SDS011;27468;47.460;19.034;2022-12-13T04:32:23;27.83;;;10.80;;
41799;SDS011;27468;47.460;19.034;2022-12-13T04:34:48;26.60;;;10.53;;
41799;SDS011;27468;47.460;19.034;2022-12-13T04:37:14;31.07;;;12.23;;
41799;SDS011;27468;47.460;19.034;2022-12-13T04:39:39;28.47;;;10.87;;
41799;SDS011;27468;47.460;19.034;2022-12-13T04:42:05;27.00;;;12.17;;
41799;SDS011;27468;47.460;19.034;2022-12-13T04:44:30;28.60;;;11.10;;
41799;SDS011;27468;47.460;19.034;2022-12-13T04:46:56;29.90;;;12.13;;
41799;SDS011;27468;47.460;19.034;2022-12-13T04:49:22;28.17;;;11.83;;
41799;SDS011;27468;47.460;19.034;2022-12-13T04:51:47;29.10;;;12.23;;
41799;SDS011;27468;47.460;19.034;2022-12-13T04:54:13;30.40;;;12.27;;
41799;SDS011;27468;47.460;19.034;2022-12-13T04:56:38;27.90;;;11.67;;
41799;SDS011;27468;47.460;19.034;2022-12-13T04:59:03;29.13;;;12.53;;
41799;SDS011;27468;47.460;19.034;2022-12-13T05:01:29;37.03;;;14.90;;
41799;SDS011;27468;47.460;19.034;2022-12-13T05:03:54;34.07;;;14.57;;
41799;SDS011;27468;47.460;19.034;2022-12-13T05:06:20;36.73;;;14.17;;
41799;SDS011;27468;47.460;19.034;2022-12-13T05:08:45;31.43;;;12.20;;
41799;SDS011;27468;47.460;19.034;2022-12-13T05:11:10;31.93;;;11.97;;
41799;SDS011;27468;47.460;19.034;2022-12-13T05:13:36;36.13;;;12.57;;
41799;SDS011;27468;47.460;19.034;2022-12-13T05:16:06;35.87;;;13.20;;
41799;SDS011;27468;47.460;19.034;2022-12-13T05:18:32;32.60;;;12.53;;
41799;SDS011;27468;47.460;19.034;2022-12-13T05:21:07;33.57;;;12.57;;
41799;SDS011;27468;47.460;19.034;2022-12-13T05:23:34;37.90;;;13.47;;
41799;SDS011;27468;47.460;19.034;2022-12-13T05:26:00;32.53;;;12.90;;
41799;SDS011;27468;47.460;19.034;2022-12-13T05:28:26;36.20;;;13.37;;
41799;SDS011;27468;47.460;19.034;2022-12-13T05:30:53;32.03;;;12.67;;
41799;SDS011;27468;47.460;19.034;2022-12-13T05:33:21;34.73;;;12.90;;
41799;SDS011;27468;47.460;19.034;2022-12-13T05:35:47;33.53;;;12.93;;
41799;SDS011;27468;47.460;19.034;2022-12-13T05:38:12;37.40;;;13.87;;
41799;SDS011;27468;47.460;19.034;2022-12-13T05:40:38;36.30;;;13.70;;
41799;SDS011;27468;47.460;19.034;2022-12-13T05:43:03;36.30;;;13.03;;
41799;SDS011;27468;47.460;19.034;2022-12-13T05:45:29;34.40;;;13.03;;
41799;SDS011;27468;47.460;19.034;2022-12-13T05:47:56;36.57;;;13.87;;
41799;SDS011;27468;47.460;19.034;2022-12-13T05:50:21;37.83;;;14.23;;
41799;SDS011;27468;47.460;19.034;2022-12-13T05:52:48;36.10;;;14.53;;
41799;SDS011;27468;47.460;19.034;2022-12-13T05:55:13;40.33;;;16.90;;
41799;SDS011;27468;47.460;19.034;2022-12-13T05:57:39;42.27;;;16.87;;
41799;SDS011;27468;47.460;19.034;2022-12-13T06:00:05;46.87;;;16.07;;
41799;SDS011;27468;47.460;19.034;2022-12-13T06:02:36;42.77;;;16.27;;
41799;SDS011;27468;47.460;19.034;2022-12-13T06:05:05;41.37;;;17.10;;
41799;SDS011;27468;47.460;19.034;2022-12-13T06:07:31;42.60;;;16.17;;
41799;SDS011;27468;47.460;19.034;2022-12-13T06:09:57;38.43;;;15.27;;
41799;SDS011;27468;47.460;19.034;2022-12-13T06:12:23;39.03;;;15.60;;
41799;SDS011;27468;47.460;19.034;2022-12-13T06:14:48;47.60;;;16.90;;
41799;SDS011;27468;47.460;19.034;2022-12-13T06:17:14;44.40;;;17.33;;
41799;SDS011;27468;47.460;19.034;2022-12-13T06:19:40;44.17;;;17.30;;
41799;SDS011;27468;47.460;19.034;2022-12-13T06:22:05;42.13;;;16.30;;
41799;SDS011;27468;47.460;19.034;2022-12-13T06:24:31;40.93;;;15.50;;
41799;SDS011;27468;47.460;19.034;2022-12-13T06:26:56;38.63;;;15.53;;
41799;SDS011;27468;47.460;19.034;2022-12-13T06:29:24;34.63;;;14.40;;
41799;SDS011;27468;47.460;19.034;2022-12-13T06:31:53;41.63;;;14.97;;
41799;SDS011;27468;47.460;19.034;2022-12-13T06:34:21;39.17;;;14.90;;
41799;SDS011;27468;47.460;19.034;2022-12-13T06:36:46;37.47;;;14.60;;
41799;SDS011;27468;47.460;19.034;2022-12-13T06:39:12;38.00;;;15.20;;
41799;SDS011;27468;47.460;19.034;2022-12-13T06:41:39;41.10;;;14.83;;
41799;SDS011;27468;47.460;19.034;2022-12-13T06:44:05;36.37;;;14.20;;
41799;SDS011;27468;47.460;19.034;2022-12-13T06:46:30;42.50;;;15.50;;
41799;SDS011;27468;47.460;19.034;2022-12-13T06:48:56;37.93;;;14.67;;
41799;SDS011;27468;47.460;19.034;2022-12-13T06:51:21;40.53;;;15.47;;
41799;SDS011;27468;47.460;19.034;2022-12-13T06:53:47;36.63;;;14.87;;
41799;SDS011;27468;47.460;19.034;2022-12-13T06:56:12;36.27;;;13.83;;
41799;SDS011;27468;47.460;19.034;2022-12-13T06:58:39;35.97;;;14.60;;
41799;SDS011;27468;47.460;19.034;2022-12-13T07:01:07;36.53;;;14.93;;
41799;SDS011;27468;47.460;19.034;2022-12-13T07:03:34;42.10;;;16.87;;
41799;SDS011;27468;47.460;19.034;2022-12-13T07:06:04;34.57;;;15.03;;
41799;SDS011;27468;47.460;19.034;2022-12-13T07:08:32;41.38;;;16.73;;
41799;SDS011;27468;47.460;19.034;2022-12-13T07:10:57;32.77;;;13.77;;
41799;SDS011;27468;47.460;19.034;2022-12-13T07:13:23;38.37;;;15.40;;
41799;SDS011;27468;47.460;19.034;2022-12-13T07:15:49;39.47;;;14.27;;
41799;SDS011;27468;47.460;19.034;2022-12-13T07:18:14;38.07;;;14.53;;
41799;SDS011;27468;47.460;19.034;2022-12-13T07:20:40;37.17;;;13.57;;
41799;SDS011;27468;47.460;19.034;2022-12-13T07:23:08;39.43;;;14.07;;
41799;SDS011;27468;47.460;19.034;2022-12-13T07:25:34;30.97;;;11.47;;
41799;SDS011;27468;47.460;19.034;2022-12-13T07:28:00;30.87;;;12.67;;
41799;SDS011;27468;47.460;19.034;2022-12-13T07:30:37;32.73;;;13.70;;
41799;SDS011;27468;47.460;19.034;2022-12-13T07:33:03;29.23;;;12.03;;
41799;SDS011;27468;47.460;19.034;2022-12-13T07:35:30;33.67;;;13.93;;
41799;SDS011;27468;47.460;19.034;2022-12-13T07:37:56;34.77;;;13.80;;
41799;SDS011;27468;47.460;19.034;2022-12-13T07:40:22;36.17;;;15.23;;
41799;SDS011;27468;47.460;19.034;2022-12-13T07:42:55;34.57;;;13.93;;
41799;SDS011;27468;47.460;19.034;2022-12-13T07:45:21;31.30;;;14.20;;
41799;SDS011;27468;47.460;19.034;2022-12-13T07:47:48;33.67;;;13.57;;
41799;SDS011;27468;47.460;19.034;2022-12-13T07:50:14;33.77;;;13.77;;
41799;SDS011;27468;47.460;19.034;2022-12-13T07:52:39;34.47;;;13.70;;
41799;SDS011;27468;47.460;19.034;2022-12-13T07:55:06;34.53;;;14.80;;
41799;SDS011;27468;47.460;19.034;2022-12-13T07:57:32;32.60;;;13.73;;
41799;SDS011;27468;47.460;19.034;2022-12-13T07:59:58;29.23;;;12.43;;
41799;SDS011;27468;47.460;19.034;2022-12-13T08:02:24;31.97;;;13.07;;
41799;SDS011;27468;47.460;19.034;2022-12-13T08:04:50;26.63;;;12.47;;
41799;SDS011;27468;47.460;19.034;2022-12-13T08:07:15;28.53;;;13.03;;
41799;SDS011;27468;47.460;19.034;2022-12-13T08:09:41;30.77;;;13.00;;
41799;SDS011;27468;47.460;19.034;2022-12-13T08:12:06;27.10;;;12.23;;
41799;SDS011;27468;47.460;19.034;2022-12-13T08:14:32;28.03;;;12.53;;
41799;SDS011;27468;47.460;19.034;2022-12-13T08:16:58;31.97;;;13.00;;
41799;SDS011;27468;47.460;19.034;2022-12-13T08:19:23;29.70;;;12.30;;
41799;SDS011;27468;47.460;19.034;2022-12-13T08:21:49;24.80;;;11.70;;
41799;SDS011;27468;47.460;19.034;2022-12-13T08:24:16;25.33;;;11.40;;
41799;SDS011;27468;47.460;19.034;2022-12-13T08:26:42;26.20;;;12.50;;
41799;SDS011;27468;47.460;19.034;2022-12-13T08:29:07;26.80;;;11.57;;
41799;SDS011;27468;47.460;19.034;2022-12-13T08:31:33;29.03;;;11.73;;
41799;SDS011;27468;47.460;19.034;2022-12-13T08:33:58;26.57;;;12.47;;
41799;SDS011;27468;47.460;19.034;2022-12-13T08:36:24;24.30;;;12.23;;
41799;SDS011;27468;47.460;19.034;2022-12-13T08:38:49;26.80;;;12.07;;
41799;SDS011;27468;47.460;19.034;2022-12-13T08:41:18;24.40;;;11.87;;
41799;SDS011;27468;47.460;19.034;2022-12-13T08:43:44;26.53;;;12.20;;
41799;SDS011;27468;47.460;19.034;2022-12-13T08:46:09;27.23;;;11.83;;
41799;SDS011;27468;47.460;19.034;2022-12-13T08:48:34;23.07;;;11.50;;
41799;SDS011;27468;47.460;19.034;2022-12-13T08:51:04;24.00;;;11.23;;
41799;SDS011;27468;47.460;19.034;2022-12-13T08:53:36;26.93;;;11.93;;
41799;SDS011;27468;47.460;19.034;2022-12-13T08:56:05;24.63;;;11.63;;
41799;SDS011;27468;47.460;19.034;2022-12-13T08:58:33;28.10;;;13.07;;
41799;SDS011;27468;47.460;19.034;2022-12-13T09:00:59;27.80;;;12.53;;
41799;SDS011;27468;47.460;19.034;2022-12-13T09:03:24;25.70;;;11.80;;
41799;SDS011;27468;47.460;19.034;2022-12-13T09:05:49;24.53;;;11.33;;
41799;SDS011;27468;47.460;19.034;2022-12-13T09:08:16;22.70;;;10.87;;
41799;SDS011;27468;47.460;19.034;2022-12-13T09:10:42;25.27;;;11.87;;
41799;SDS011;27468;47.460;19.034;2022-12-13T09:13:08;23.50;;;10.83;;
41799;SDS011;27468;47.460;19.034;2022-12-13T09:15:33;22.47;;;10.23;;
41799;SDS011;27468;47.460;19.034;2022-12-13T09:18:02;20.40;;;10.30;;
41799;SDS011;27468;47.460;19.034;2022-12-13T09:20:27;19.30;;;9.67;;
41799;SDS011;27468;47.460;19.034;2022-12-13T09:22:53;22.00;;;10.10;;
41799;SDS011;27468;47.460;19.034;2022-12-13T09:25:18;15.03;;;8.73;;
41799;SDS011;27468;47.460;19.034;2022-12-13T09:27:44;13.60;;;6.90;;
41799;SDS011;27468;47.460;19.034;2022-12-13T09:30:09;9.30;;;4.83;;
41799;SDS011;27468;47.460;19.034;2022-12-13T09:32:39;12.83;;;6.03;;
41799;SDS011;27468;47.460;19.034;2022-12-13T09:35:05;10.70;;;6.20;;
41799;SDS011;27468;47.460;19.034;2022-12-13T09:37:31;11.10;;;5.23;;
41799;SDS011;27468;47.460;19.034;2022-12-13T09:39:57;6.87;;;4.20;;
41799;SDS011;27468;47.460;19.034;2022-12-13T09:42:26;6.90;;;3.80;;
41799;SDS011;27468;47.460;19.034;2022-12-13T09:44:55;8.68;;;4.50;;
41799;SDS011;27468;47.460;19.034;2022-12-13T09:49:59;8.40;;;5.03;;
41799;SDS011;27468;47.460;19.034;2022-12-13T09:52:29;6.73;;;3.60;;
41799;SDS011;27468;47.460;19.034;2022-12-13T09:55:04;6.37;;;3.77;;
41799;SDS011;27468;47.460;19.034;2022-12-13T09:57:42;7.47;;;4.10;;
41799;SDS011;27468;47.460;19.034;2022-12-13T10:00:12;7.30;;;4.37;;
41799;SDS011;27468;47.460;19.034;2022-12-13T10:02:50;9.10;;;5.00;;
41799;SDS011;27468;47.460;19.034;2022-12-13T10:05:20;15.27;;;8.07;;
41799;SDS011;27468;47.460;19.034;2022-12-13T10:07:51;14.85;;;6.93;;
41799;SDS011;27468;47.460;19.034;2022-12-13T10:10:19;13.43;;;6.83;;
41799;SDS011;27468;47.460;19.034;2022-12-13T10:12:46;10.17;;;6.37;;
41799;SDS011;27468;47.460;19.034;2022-12-13T10:15:20;12.77;;;6.90;;
41799;SDS011;27468;47.460;19.034;2022-12-13T10:17:47;10.73;;;6.40;;
41799;SDS011;27468;47.460;19.034;2022-12-13T10:20:18;11.40;;;6.00;;
41799;SDS011;27468;47.460;19.034;2022-12-13T10:22:45;10.80;;;6.18;;
41799;SDS011;27468;47.460;19.034;2022-12-13T10:25:11;10.53;;;5.87;;
41799;SDS011;27468;47.460;19.034;2022-12-13T10:27:38;14.07;;;7.60;;
41799;SDS011;27468;47.460;19.034;2022-12-13T10:40:38;10.13;;;5.57;;
41799;SDS011;27468;47.460;19.034;2022-12-13T10:45:58;10.70;;;6.30;;
41799;SDS011;27468;47.460;19.034;2022-12-13T10:51:17;10.10;;;6.30;;
41799;SDS011;27468;47.460;19.034;2022-12-13T10:53:49;9.80;;;5.73;;
41799;SDS011;27468;47.460;19.034;2022-12-13T10:56:17;10.75;;;5.72;;
41799;SDS011;27468;47.460;19.034;2022-12-13T10:58:45;10.90;;;6.33;;
41799;SDS011;27468;47.460;19.034;2022-12-13T11:03:43;9.73;;;5.20;;
41799;SDS011;27468;47.460;19.034;2022-12-13T11:06:40;9.87;;;5.47;;
41799;SDS011;27468;47.460;19.034;2022-12-13T11:09:28;10.30;;;5.40;;
41799;SDS011;27468;47.460;19.034;2022-12-13T11:12:02;10.60;;;6.13;;
41799;SDS011;27468;47.460;19.034;2022-12-13T11:14:35;10.67;;;5.70;;
41799;SDS011;27468;47.460;19.034;2022-12-13T11:17:16;10.17;;;5.67;;
41799;SDS011;27468;47.460;19.034;2022-12-13T11:19:46;7.37;;;4.93;;
41799;SDS011;27468;47.460;19.034;2022-12-13T11:22:19;8.70;;;5.37;;
41799;SDS011;27468;47.460;19.034;2022-12-13T11:24:50;10.70;;;5.40;;
41799;SDS011;27468;47.460;19.034;2022-12-13T11:30:24;8.67;;;5.33;;
41799;SDS011;27468;47.460;19.034;2022-12-13T11:41:28;6.67;;;4.07;;
41799;SDS011;27468;47.460;19.034;2022-12-13T11:47:24;7.57;;;4.60;;
41799;SDS011;27468;47.460;19.034;2022-12-13T11:49:55;7.23;;;4.30;;
41799;SDS011;27468;47.460;19.034;2022-12-13T11:52:24;7.47;;;4.50;;
41799;SDS011;27468;47.460;19.034;2022-12-13T11:54:56;8.10;;;4.53;;
41799;SDS011;27468;47.460;19.034;2022-12-13T11:57:42;8.00;;;4.72;;
41799;SDS011;27468;47.460;19.034;2022-12-13T12:02:52;7.87;;;4.50;;
41799;SDS011;27468;47.460;19.034;2022-12-13T12:05:33;10.20;;;5.87;;
41799;SDS011;27468;47.460;19.034;2022-12-13T12:08:08;6.27;;;4.07;;
41799;SDS011;27468;47.460;19.034;2022-12-13T12:10:42;7.73;;;4.63;;
41799;SDS011;27468;47.460;19.034;2022-12-13T12:13:27;7.43;;;4.40;;
41799;SDS011;27468;47.460;19.034;2022-12-13T12:18:26;9.03;;;4.80;;
41799;SDS011;27468;47.460;19.034;2022-12-13T12:26:11;6.07;;;3.87;;
41799;SDS011;27468;47.460;19.034;2022-12-13T12:29:05;7.33;;;4.30;;
41799;SDS011;27468;47.460;19.034;2022-12-13T12:31:50;9.27;;;4.90;;
41799;SDS011;27468;47.460;19.034;2022-12-13T12:39:57;7.23;;;4.63;;
41799;SDS011;27468;47.460;19.034;2022-12-13T12:42:33;8.73;;;4.47;;
41799;SDS011;27468;47.460;19.034;2022-12-13T13:01:50;8.23;;;5.13;;
41799;SDS011;27468;47.460;19.034;2022-12-13T13:04:23;11.43;;;5.63;;
41799;SDS011;27468;47.460;19.034;2022-12-13T13:06:59;9.53;;;5.20;;
41799;SDS011;27468;47.460;19.034;2022-12-13T13:09:31;8.60;;;4.40;;
41799;SDS011;27468;47.460;19.034;2022-12-13T13:11:58;8.87;;;4.93;;
41799;SDS011;27468;47.460;19.034;2022-12-13T13:16:59;9.20;;;5.10;;
41799;SDS011;27468;47.460;19.034;2022-12-13T13:19:46;7.80;;;4.40;;
41799;SDS011;27468;47.460;19.034;2022-12-13T13:22:32;10.07;;;5.33;;
41799;SDS011;27468;47.460;19.034;2022-12-13T13:27:35;7.87;;;4.83;;
41799;SDS011;27468;47.460;19.034;2022-12-13T13:30:16;10.03;;;4.97;;
41799;SDS011;27468;47.460;19.034;2022-12-13T13:32:45;7.90;;;4.70;;
41799;SDS011;27468;47.460;19.034;2022-12-13T13:37:55;8.47;;;5.00;;
41799;SDS011;27468;47.460;19.034;2022-12-13T13:40:26;8.57;;;4.90;;
41799;SDS011;27468;47.460;19.034;2022-12-13T13:45:49;9.17;;;5.40;;
41799;SDS011;27468;47.460;19.034;2022-12-13T13:57:23;10.27;;;5.30;;
41799;SDS011;27468;47.460;19.034;2022-12-13T14:09:24;10.02;;;5.40;;
41799;SDS011;27468;47.460;19.034;2022-12-13T14:28:57;9.43;;;5.07;;
41799;SDS011;27468;47.460;19.034;2022-12-13T14:31:41;10.97;;;5.77;;
41799;SDS011;27468;47.460;19.034;2022-12-13T14:34:16;9.87;;;5.53;;
41799;SDS011;27468;47.460;19.034;2022-12-13T14:36:52;9.50;;;5.40;;
41799;SDS011;27468;47.460;19.034;2022-12-13T14:39:42;9.40;;;5.40;;
41799;SDS011;27468;47.460;19.034;2022-12-13T14:44:54;11.67;;;6.10;;
41799;SDS011;27468;47.460;19.034;2022-12-13T14:47:38;14.98;;;7.07;;
41799;SDS011;27468;47.460;19.034;2022-12-13T14:50:05;11.13;;;6.43;;
41799;SDS011;27468;47.460;19.034;2022-12-13T14:52:32;12.20;;;6.40;;
41799;SDS011;27468;47.460;19.034;2022-12-13T14:55:03;16.42;;;7.75;;
41799;SDS011;27468;47.460;19.034;2022-12-13T14:57:29;16.87;;;7.77;;
41799;SDS011;27468;47.460;19.034;2022-12-13T14:59:57;13.27;;;7.23;;
41799;SDS011;27468;47.460;19.034;2022-12-13T15:04:59;16.23;;;8.70;;
41799;SDS011;27468;47.460;19.034;2022-12-13T15:07:27;17.13;;;9.57;;
41799;SDS011;27468;47.460;19.034;2022-12-13T15:09:56;19.53;;;10.30;;
41799;SDS011;27468;47.460;19.034;2022-12-13T15:12:24;20.17;;;10.70;;
41799;SDS011;27468;47.460;19.034;2022-12-13T15:14:54;21.90;;;10.57;;
41799;SDS011;27468;47.460;19.034;2022-12-13T15:17:35;21.63;;;10.50;;
41799;SDS011;27468;47.460;19.034;2022-12-13T15:23:17;20.60;;;10.77;;
41799;SDS011;27468;47.460;19.034;2022-12-13T15:28:51;20.20;;;10.37;;
41799;SDS011;27468;47.460;19.034;2022-12-13T15:31:18;20.17;;;11.00;;
41799;SDS011;27468;47.460;19.034;2022-12-13T15:33:44;23.20;;;11.33;;
41799;SDS011;27468;47.460;19.034;2022-12-13T15:38:58;30.97;;;12.63;;
41799;SDS011;27468;47.460;19.034;2022-12-13T15:41:26;34.13;;;14.37;;
41799;SDS011;27468;47.460;19.034;2022-12-13T15:43:53;27.60;;;12.50;;
41799;SDS011;27468;47.460;19.034;2022-12-13T15:46:29;25.73;;;11.67;;
41799;SDS011;27468;47.460;19.034;2022-12-13T15:48:57;23.05;;;11.75;;
41799;SDS011;27468;47.460;19.034;2022-12-13T15:51:25;29.27;;;14.17;;
41799;SDS011;27468;47.460;19.034;2022-12-13T15:56:57;33.17;;;16.70;;
41799;SDS011;27468;47.460;19.034;2022-12-13T15:59:40;34.17;;;15.90;;
41799;SDS011;27468;47.460;19.034;2022-12-13T16:02:22;36.23;;;17.30;;
41799;SDS011;27468;47.460;19.034;2022-12-13T16:04:49;33.13;;;16.60;;
41799;SDS011;27468;47.460;19.034;2022-12-13T16:07:23;33.83;;;16.00;;
41799;SDS011;27468;47.460;19.034;2022-12-13T16:09:52;29.77;;;14.60;;
41799;SDS011;27468;47.460;19.034;2022-12-13T16:12:19;31.33;;;14.93;;
41799;SDS011;27468;47.460;19.034;2022-12-13T16:14:48;30.30;;;14.60;;
41799;SDS011;27468;47.460;19.034;2022-12-13T16:17:24;29.23;;;13.87;;
41799;SDS011;27468;47.460;19.034;2022-12-13T16:19:53;28.53;;;13.00;;
41799;SDS011;27468;47.460;19.034;2022-12-13T16:22:22;23.70;;;12.37;;
41799;SDS011;27468;47.460;19.034;2022-12-13T16:24:48;26.07;;;12.33;;
41799;SDS011;27468;47.460;19.034;2022-12-13T16:27:15;22.80;;;11.50;;
41799;SDS011;27468;47.460;19.034;2022-12-13T16:29:41;25.17;;;11.87;;
41799;SDS011;27468;47.460;19.034;2022-12-13T16:32:07;24.60;;;11.67;;
41799;SDS011;27468;47.460;19.034;2022-12-13T16:34:35;28.30;;;13.07;;
41799;SDS011;27468;47.460;19.034;2022-12-13T16:37:01;26.90;;;12.83;;
41799;SDS011;27468;47.460;19.034;2022-12-13T16:39:26;31.17;;;13.80;;
41799;SDS011;27468;47.460;19.034;2022-12-13T16:41:52;28.17;;;13.73;;
41799;SDS011;27468;47.460;19.034;2022-12-13T16:44:21;27.07;;;13.53;;
41799;SDS011;27468;47.460;19.034;2022-12-13T16:46:53;28.40;;;13.10;;
41799;SDS011;27468;47.460;19.034;2022-12-13T16:49:20;27.83;;;13.37;;
41799;SDS011;27468;47.460;19.034;2022-12-13T16:51:48;30.60;;;13.77;;
41799;SDS011;27468;47.460;19.034;2022-12-13T16:54:14;28.63;;;13.27;;
41799;SDS011;27468;47.460;19.034;2022-12-13T16:56:40;31.10;;;14.50;;
41799;SDS011;27468;47.460;19.034;2022-12-13T16:59:07;27.20;;;14.07;;
41799;SDS011;27468;47.460;19.034;2022-12-13T17:01:36;32.37;;;14.50;;
41799;SDS011;27468;47.460;19.034;2022-12-13T17:04:02;29.23;;;14.13;;
41799;SDS011;27468;47.460;19.034;2022-12-13T17:06:27;30.97;;;14.00;;
41799;SDS011;27468;47.460;19.034;2022-12-13T17:08:53;32.00;;;14.27;;